createdAt,value
2024-03-16T00:00:21.823Z,13.60
2024-03-16T00:02:50.444Z,13.50
2024-03-16T00:05:19.541Z,13.60
2024-03-16T00:07:48.532Z,13.50
2024-03-16T00:10:19.542Z,13.50
2024-03-16T00:12:49.793Z,13.50
2024-03-16T00:15:22.004Z,13.60
2024-03-16T00:17:51.315Z,13.60
2024-03-16T00:20:22.539Z,13.60
2024-03-16T00:22:52.880Z,13.60
2024-03-16T00:25:23.535Z,13.60
2024-03-16T00:27:54.143Z,13.60
2024-03-16T00:30:26.163Z,13.60
2024-03-16T00:32:56.197Z,13.60
2024-03-16T00:35:25.996Z,13.60
2024-03-16T00:37:56.071Z,13.60
2024-03-16T00:40:24.814Z,13.70
2024-03-16T00:42:54.100Z,13.70
2024-03-16T00:45:23.843Z,13.80
2024-03-16T00:47:53.707Z,13.80
2024-03-16T00:50:22.392Z,13.70
2024-03-16T00:52:52.041Z,13.50
2024-03-16T00:55:21.993Z,13.50
2024-03-16T00:57:50.151Z,13.40
2024-03-16T01:00:19.708Z,13.50
2024-03-16T01:02:48.705Z,13.50
2024-03-16T01:05:18.448Z,13.60
2024-03-16T01:07:47.312Z,13.60
2024-03-16T01:10:17.016Z,13.50
2024-03-16T01:12:47.014Z,13.50
2024-03-16T01:15:15.427Z,13.40
2024-03-16T01:17:43.403Z,13.40
2024-03-16T01:20:12.724Z,13.40
2024-03-16T01:22:41.489Z,13.40
2024-03-16T01:25:10.018Z,13.50
2024-03-16T01:27:38.747Z,13.50
2024-03-16T01:30:08.956Z,13.50
2024-03-16T01:32:38.119Z,13.50
2024-03-16T01:35:08.037Z,13.50
2024-03-16T01:37:37.076Z,13.60
2024-03-16T01:40:08.503Z,13.60
2024-03-16T01:42:37.871Z,13.50
2024-03-16T01:45:19.735Z,13.60
2024-03-16T01:47:48.887Z,13.60
2024-03-16T01:50:20.506Z,13.70
2024-03-16T01:52:48.973Z,13.50
2024-03-16T01:55:17.925Z,13.40
2024-03-16T01:57:46.274Z,13.30
2024-03-16T02:00:14.386Z,13.30
2024-03-16T02:02:42.085Z,13.40
2024-03-16T02:05:09.951Z,13.50
2024-03-16T02:07:38.925Z,13.40
2024-03-16T02:10:11.368Z,13.40
2024-03-16T02:12:39.259Z,13.40
2024-03-16T02:15:07.295Z,13.40
2024-03-16T02:17:35.168Z,13.50
2024-03-16T02:20:10.419Z,13.50
2024-03-16T02:22:38.131Z,13.40
2024-03-16T02:25:08.456Z,13.20
2024-03-16T02:27:36.670Z,13.20
2024-03-16T02:30:05.595Z,13.20
2024-03-16T02:32:33.477Z,13.30
2024-03-16T02:35:01.222Z,13.30
2024-03-16T02:37:28.889Z,13.40
2024-03-16T02:39:57.017Z,13.40
2024-03-16T02:42:24.705Z,13.40
2024-03-16T02:44:53.321Z,13.40
2024-03-16T02:47:21.994Z,13.50
2024-03-16T02:49:51.706Z,13.40
2024-03-16T02:52:19.414Z,13.50
2024-03-16T02:54:47.147Z,13.50
2024-03-16T02:57:14.995Z,13.40
2024-03-16T02:59:42.675Z,13.20
2024-03-16T03:02:10.435Z,13.10
2024-03-16T03:04:38.135Z,13.10
2024-03-16T03:07:06.300Z,13.10
2024-03-16T03:09:34.912Z,13.00
2024-03-16T03:12:02.719Z,13.10
2024-03-16T03:14:30.329Z,13.10
2024-03-16T03:16:58.052Z,13.10
2024-03-16T03:19:26.070Z,13.10
2024-03-16T03:21:53.996Z,13.10
2024-03-16T03:24:21.792Z,13.10
2024-03-16T03:26:49.606Z,13.20
2024-03-16T03:29:17.362Z,13.20
2024-03-16T03:31:44.979Z,13.20
2024-03-16T03:34:12.828Z,13.10
2024-03-16T03:36:45.573Z,13.10
2024-03-16T03:39:17.364Z,13.20
2024-03-16T03:41:45.288Z,13.20
2024-03-16T03:44:22.605Z,13.20
2024-03-16T03:46:53.441Z,13.10
2024-03-16T03:49:27.896Z,13.10
2024-03-16T03:51:56.258Z,13.10
2024-03-16T03:54:24.760Z,13.10
2024-03-16T03:56:53.035Z,13.10
2024-03-16T03:59:20.901Z,13.30
2024-03-16T04:01:48.859Z,13.20
2024-03-16T04:04:16.783Z,13.30
2024-03-16T04:06:46.691Z,13.20
2024-03-16T04:09:15.773Z,13.10
2024-03-16T04:11:43.542Z,13.10
2024-03-16T04:14:11.278Z,13.20
2024-03-16T04:16:39.565Z,13.00
2024-03-16T04:19:07.418Z,13.00
2024-03-16T04:21:35.225Z,13.10
2024-03-16T04:24:03.095Z,13.20
2024-03-16T04:26:30.708Z,13.00
2024-03-16T04:28:58.421Z,13.00
2024-03-16T04:31:26.077Z,13.10
2024-03-16T04:33:53.910Z,13.00
2024-03-16T04:36:21.657Z,12.90
2024-03-16T04:38:49.456Z,13.00
2024-03-16T04:41:17.253Z,13.00
2024-03-16T04:43:48.110Z,13.00
2024-03-16T04:46:15.815Z,13.00
2024-03-16T04:48:43.656Z,13.00
2024-03-16T04:51:11.487Z,13.00
2024-03-16T04:53:39.086Z,12.90
2024-03-16T04:56:06.976Z,12.90
2024-03-16T04:58:34.977Z,13.00
2024-03-16T05:01:02.725Z,12.90
2024-03-16T05:03:30.443Z,12.90
2024-03-16T05:05:58.245Z,12.80
2024-03-16T05:08:27.056Z,12.60
2024-03-16T05:10:54.868Z,12.50
2024-03-16T05:13:22.675Z,12.40
2024-03-16T05:15:50.300Z,12.40
2024-03-16T05:18:17.976Z,12.50
2024-03-16T05:20:48.369Z,12.60
2024-03-16T05:23:16.099Z,12.80
2024-03-16T05:25:49.960Z,12.90
2024-03-16T05:28:18.045Z,12.90
2024-03-16T05:30:45.804Z,12.90
2024-03-16T05:33:13.959Z,12.90
2024-03-16T05:35:42.052Z,12.90
2024-03-16T05:38:09.837Z,12.90
2024-03-16T05:40:43.164Z,13.00
2024-03-16T05:43:11.175Z,13.10
2024-03-16T05:45:38.859Z,12.90
2024-03-16T05:48:06.840Z,12.90
2024-03-16T05:50:36.494Z,12.90
2024-03-16T05:53:04.437Z,12.90
2024-03-16T05:55:32.355Z,12.80
2024-03-16T05:58:00.264Z,12.90
2024-03-16T06:00:28.403Z,12.90
2024-03-16T06:02:57.383Z,12.80
2024-03-16T06:05:25.137Z,12.90
2024-03-16T06:07:52.842Z,13.00
2024-03-16T06:10:20.648Z,13.20
2024-03-16T06:12:48.517Z,13.20
2024-03-16T06:15:16.278Z,13.30
2024-03-16T06:17:44.001Z,13.20
2024-03-16T06:20:14.692Z,13.10
2024-03-16T06:22:43.172Z,13.20
2024-03-16T06:25:12.804Z,13.30
2024-03-16T06:28:06.604Z,13.40
2024-03-16T06:30:34.561Z,13.40
2024-03-16T06:33:10.409Z,13.40
2024-03-16T06:35:38.985Z,13.30
2024-03-16T06:38:06.786Z,13.30
2024-03-16T06:40:34.644Z,13.40
2024-03-16T06:43:02.481Z,13.40
2024-03-16T06:45:30.298Z,13.40
2024-03-16T06:47:58.773Z,13.40
2024-03-16T06:50:26.591Z,13.50
2024-03-16T06:52:54.271Z,13.40
2024-03-16T06:55:22.103Z,13.30
2024-03-16T06:57:50.266Z,13.30
2024-03-16T07:00:18.687Z,13.00
2024-03-16T07:02:46.370Z,12.80
2024-03-16T07:05:14.151Z,12.90
2024-03-16T07:07:41.871Z,13.00
2024-03-16T07:10:09.749Z,13.10
2024-03-16T07:12:52.659Z,13.30
2024-03-16T07:15:20.582Z,13.40
2024-03-16T07:17:48.383Z,13.50
2024-03-16T07:20:16.294Z,13.60
2024-03-16T07:22:43.911Z,13.60
2024-03-16T07:25:11.688Z,13.60
2024-03-16T07:27:39.287Z,13.70
2024-03-16T07:30:07.605Z,13.70
2024-03-16T07:32:35.379Z,13.90
2024-03-16T07:35:07.940Z,14.00
2024-03-16T07:37:35.960Z,14.10
2024-03-16T07:40:05.596Z,14.10
2024-03-16T07:42:33.429Z,14.00
2024-03-16T07:45:01.073Z,13.90
2024-03-16T07:47:28.907Z,14.10
2024-03-16T07:49:56.625Z,14.50
2024-03-16T07:52:24.474Z,14.70
2024-03-16T07:54:52.130Z,14.80
2024-03-16T07:57:19.930Z,14.80
2024-03-16T07:59:47.657Z,14.90
2024-03-16T08:02:17.195Z,15.00
2024-03-16T08:04:46.378Z,15.10
2024-03-16T08:07:14.536Z,15.10
2024-03-16T08:09:42.342Z,15.10
2024-03-16T08:12:10.042Z,15.30
2024-03-16T08:14:37.828Z,15.40
2024-03-16T08:17:05.782Z,15.30
2024-03-16T08:19:33.841Z,15.20
2024-03-16T08:22:01.656Z,15.00
2024-03-16T08:24:29.506Z,15.10
2024-03-16T08:26:57.317Z,15.20
2024-03-16T08:29:25.147Z,15.10
2024-03-16T08:31:52.966Z,15.30
2024-03-16T08:34:20.807Z,15.40
2024-03-16T08:36:48.641Z,15.50
2024-03-16T08:39:16.552Z,15.70
2024-03-16T08:41:44.431Z,15.60
2024-03-16T08:44:12.365Z,15.60
2024-03-16T08:46:40.030Z,15.70
2024-03-16T08:49:08.906Z,15.80
2024-03-16T08:51:36.748Z,15.70
2024-03-16T08:54:06.609Z,15.90
2024-03-16T08:56:34.528Z,16.10
2024-03-16T08:59:04.134Z,16.20
2024-03-16T09:01:32.452Z,16.30
2024-03-16T09:04:00.238Z,16.10
2024-03-16T09:06:28.066Z,16.00
2024-03-16T09:08:59.715Z,15.90
2024-03-16T09:11:27.867Z,15.80
2024-03-16T09:13:55.631Z,15.90
2024-03-16T09:16:23.389Z,15.90
2024-03-16T09:18:51.337Z,15.70
2024-03-16T09:21:19.070Z,15.70
2024-03-16T09:23:46.979Z,15.70
2024-03-16T09:26:14.738Z,15.80
2024-03-16T09:28:43.545Z,15.90
2024-03-16T09:31:11.761Z,16.10
2024-03-16T09:33:39.651Z,16.20
2024-03-16T09:36:07.455Z,16.30
2024-03-16T09:38:36.132Z,16.40
2024-03-16T09:41:03.905Z,16.30
